createdAt,value
2022-10-01T00:02:07.396Z,4.73
2022-10-01T00:04:37.613Z,5.27
2022-10-01T00:07:10.916Z,4.57
2022-10-01T00:09:39.404Z,4.70
2022-10-01T00:12:11.192Z,5.77
2022-10-01T00:14:39.563Z,4.40
2022-10-01T00:17:07.680Z,4.93
2022-10-01T00:19:36.760Z,4.50
2022-10-01T00:22:06.218Z,4.20
2022-10-01T00:24:36.585Z,4.20
2022-10-01T00:27:08.861Z,4.40
2022-10-01T00:29:39.771Z,4.13
2022-10-01T00:32:10.898Z,4.70
2022-10-01T00:34:39.008Z,4.20
2022-10-01T00:37:10.403Z,4.80
2022-10-01T00:39:41.545Z,4.87
2022-10-01T00:42:19.228Z,3.87
2022-10-01T00:44:49.938Z,3.70
2022-10-01T00:47:25.992Z,3.80
2022-10-01T00:50:01.316Z,4.23
2022-10-01T00:52:39.242Z,3.63
2022-10-01T00:55:12.114Z,4.23
2022-10-01T00:57:45.229Z,3.70
2022-10-01T01:00:14.920Z,4.13
2022-10-01T01:02:43.571Z,3.67
2022-10-01T01:05:13.681Z,3.63
2022-10-01T01:07:46.459Z,4.17
2022-10-01T01:10:16.167Z,4.03
2022-10-01T01:12:59.570Z,3.47
2022-10-01T01:15:35.403Z,4.07
2022-10-01T01:18:11.785Z,3.50
2022-10-01T01:21:09.194Z,5.80
2022-10-01T01:24:01.885Z,3.67
2022-10-01T01:26:36.418Z,3.30
2022-10-01T01:29:14.767Z,3.60
2022-10-01T01:31:47.182Z,3.97
2022-10-01T01:34:22.824Z,4.83
2022-10-01T01:36:58.618Z,3.83
2022-10-01T01:39:33.053Z,3.73
2022-10-01T01:42:07.132Z,4.50
2022-10-01T01:44:44.091Z,4.20
2022-10-01T01:47:13.864Z,4.23
2022-10-01T01:49:42.926Z,3.83
2022-10-01T01:52:13.520Z,4.37
2022-10-01T01:54:42.426Z,5.00
2022-10-01T01:57:13.160Z,5.50
2022-10-01T01:59:45.119Z,4.17
2022-10-01T02:02:15.064Z,4.50
2022-10-01T02:04:48.108Z,3.57
2022-10-01T02:07:36.479Z,3.87
2022-10-01T02:10:16.832Z,3.50
2022-10-01T02:13:01.516Z,3.90
2022-10-01T02:15:37.568Z,3.33
2022-10-01T02:18:12.983Z,3.93
2022-10-01T02:20:45.805Z,3.80
2022-10-01T02:23:19.231Z,5.13
2022-10-01T02:25:53.314Z,3.97
2022-10-01T02:28:27.205Z,4.10
2022-10-01T02:31:00.941Z,4.33
2022-10-01T02:33:32.618Z,3.43
2022-10-01T02:36:02.274Z,3.50
2022-10-01T02:38:31.172Z,3.90
2022-10-01T02:41:07.228Z,3.47
2022-10-01T02:43:42.934Z,4.00
2022-10-01T02:46:21.867Z,4.57
2022-10-01T02:48:51.290Z,4.13
2022-10-01T02:51:31.134Z,4.37
2022-10-01T02:54:04.330Z,3.60
2022-10-01T02:56:52.314Z,3.83
2022-10-01T02:59:23.732Z,4.20
2022-10-01T03:01:55.996Z,4.27
2022-10-01T03:04:24.278Z,4.17
2022-10-01T03:06:52.344Z,3.77
2022-10-01T03:09:20.427Z,5.13
2022-10-01T03:11:48.508Z,3.97
2022-10-01T03:14:16.531Z,3.43
2022-10-01T03:16:44.630Z,4.63
2022-10-01T03:19:14.359Z,4.63
2022-10-01T03:21:42.459Z,4.23
2022-10-01T03:24:10.572Z,3.97
2022-10-01T03:26:42.010Z,4.13
2022-10-01T03:29:10.110Z,4.80
2022-10-01T03:31:39.299Z,3.87
2022-10-01T03:34:07.495Z,4.70
2022-10-01T03:36:37.815Z,5.17
2022-10-01T03:39:06.137Z,4.00
2022-10-01T03:41:35.517Z,4.33
2022-10-01T03:44:03.984Z,4.37
2022-10-01T03:46:32.354Z,4.40
2022-10-01T03:49:00.886Z,4.30
2022-10-01T03:51:29.466Z,5.43
2022-10-01T03:53:59.623Z,4.83
2022-10-01T03:56:27.898Z,4.23
2022-10-01T03:58:56.031Z,4.63
2022-10-01T04:01:24.337Z,5.77
2022-10-01T04:03:55.728Z,4.70
2022-10-01T04:06:23.844Z,5.23
2022-10-01T04:08:51.885Z,4.80
2022-10-01T04:11:21.707Z,5.03
2022-10-01T04:13:49.774Z,4.90
2022-10-01T04:16:21.883Z,5.57
2022-10-01T04:18:49.979Z,4.97
2022-10-01T04:21:19.145Z,5.13
2022-10-01T04:23:47.280Z,5.33
2022-10-01T04:26:17.489Z,5.80
2022-10-01T04:28:47.551Z,5.10
2022-10-01T04:31:34.680Z,5.23
2022-10-01T04:34:05.735Z,5.70
2022-10-01T04:36:33.845Z,5.37
2022-10-01T04:39:04.254Z,5.00
2022-10-01T04:41:32.895Z,5.50
2022-10-01T04:44:02.837Z,5.23
2022-10-01T04:46:31.955Z,5.47
2022-10-01T04:49:04.243Z,5.07
2022-10-01T04:51:32.465Z,7.37
2022-10-01T04:54:00.859Z,6.43
2022-10-01T04:56:28.955Z,6.70
2022-10-01T04:58:59.162Z,5.40
2022-10-01T05:01:28.629Z,5.20
2022-10-01T05:03:56.763Z,6.30
2022-10-01T05:06:24.842Z,5.00
2022-10-01T05:08:53.147Z,5.70
2022-10-01T05:11:21.234Z,5.27
2022-10-01T05:13:49.305Z,5.30
2022-10-01T05:16:20.594Z,7.53
2022-10-01T05:18:50.170Z,5.63
2022-10-01T05:21:18.246Z,5.13
2022-10-01T05:23:49.298Z,5.30
2022-10-01T05:26:17.403Z,5.67
2022-10-01T05:28:45.440Z,5.30
2022-10-01T05:31:16.331Z,5.37
2022-10-01T05:33:44.460Z,5.30
2022-10-01T05:36:13.879Z,5.47
2022-10-01T05:38:44.401Z,5.93
2022-10-01T05:41:12.475Z,5.10
2022-10-01T05:43:40.546Z,5.10
2022-10-01T05:46:10.370Z,5.60
2022-10-01T05:48:38.572Z,5.00
2022-10-01T05:51:08.317Z,4.90
2022-10-01T05:53:38.526Z,4.77
2022-10-01T05:56:07.148Z,5.30
2022-10-01T05:58:37.946Z,5.17
2022-10-01T06:01:06.106Z,5.10
2022-10-01T06:03:36.064Z,4.80
2022-10-01T06:06:07.935Z,4.97
2022-10-01T06:08:38.718Z,5.03
2022-10-01T06:11:08.916Z,6.07
2022-10-01T06:13:45.130Z,4.87
2022-10-01T06:16:13.609Z,5.17
2022-10-01T06:18:42.434Z,4.90
2022-10-01T06:21:11.031Z,4.80
2022-10-01T06:23:40.467Z,4.97
2022-10-01T06:26:08.787Z,5.23
2022-10-01T06:28:36.843Z,5.00
2022-10-01T06:31:05.826Z,4.60
2022-10-01T06:33:34.080Z,5.30
2022-10-01T06:36:05.536Z,5.47
2022-10-01T06:38:36.786Z,4.83
2022-10-01T06:41:06.359Z,4.70
2022-10-01T06:43:34.490Z,5.27
2022-10-01T06:46:03.871Z,5.30
2022-10-01T06:48:35.951Z,4.90
2022-10-01T06:51:08.576Z,4.23
2022-10-01T06:53:37.611Z,4.80
2022-10-01T06:56:15.887Z,4.70
2022-10-01T06:58:43.904Z,5.33
2022-10-01T07:01:14.373Z,5.13
2022-10-01T07:03:42.420Z,4.63
2022-10-01T07:06:12.462Z,4.10
2022-10-01T07:08:40.512Z,4.60
2022-10-01T07:11:09.963Z,4.77
2022-10-01T07:13:40.127Z,5.13
2022-10-01T07:16:08.206Z,5.07
2022-10-01T07:18:41.975Z,4.33
2022-10-01T07:21:13.030Z,4.13
2022-10-01T07:23:41.099Z,4.60
2022-10-01T07:26:11.117Z,4.47
2022-10-01T07:28:39.189Z,4.70
2022-10-01T07:31:11.236Z,4.90
2022-10-01T07:33:39.364Z,3.87
2022-10-01T07:36:09.363Z,4.00
2022-10-01T07:38:37.893Z,4.23
2022-10-01T07:41:11.051Z,4.07
2022-10-01T07:43:41.471Z,4.03
2022-10-01T07:46:09.543Z,4.20
2022-10-01T07:48:37.657Z,4.00
2022-10-01T07:51:06.031Z,3.97
2022-10-01T07:53:34.071Z,4.07
2022-10-01T07:56:03.162Z,7.00
2022-10-01T07:58:32.551Z,4.00
2022-10-01T08:01:05.501Z,3.57
2022-10-01T08:03:33.588Z,3.70
2022-10-01T08:06:03.396Z,3.50
2022-10-01T08:08:34.628Z,3.63
2022-10-01T08:11:03.867Z,3.57
2022-10-01T08:13:36.613Z,3.10
2022-10-01T08:16:12.581Z,3.33
2022-10-01T08:18:41.646Z,3.67
2022-10-01T08:21:09.779Z,2.87
2022-10-01T08:23:37.871Z,2.90
2022-10-01T08:26:08.641Z,3.30
2022-10-01T08:28:38.023Z,3.00
2022-10-01T08:31:09.417Z,2.80
2022-10-01T08:33:40.787Z,2.60
2022-10-01T08:36:09.368Z,2.67
2022-10-01T08:38:41.208Z,2.57
2022-10-01T08:41:27.018Z,2.47
2022-10-01T08:43:59.369Z,2.77
2022-10-01T08:46:38.217Z,3.20
2022-10-01T08:49:14.908Z,2.30
2022-10-01T08:51:49.337Z,2.40
2022-10-01T08:54:35.283Z,2.10
2022-10-01T08:57:12.702Z,2.20
2022-10-01T08:59:44.696Z,2.33
2022-10-01T09:02:20.697Z,2.30
2022-10-01T09:05:00.321Z,2.40
2022-10-01T09:08:04.061Z,2.53
2022-10-01T09:10:44.377Z,2.30
2022-10-01T09:13:50.210Z,2.90
2022-10-01T09:16:26.952Z,2.63
2022-10-01T09:19:11.730Z,3.30
2022-10-01T09:21:52.435Z,3.43
2022-10-01T09:24:30.569Z,4.07
2022-10-01T09:27:01.867Z,4.37
2022-10-01T09:29:45.287Z,3.90
2022-10-01T09:32:21.587Z,4.80
2022-10-01T09:34:54.860Z,4.90
2022-10-01T09:37:32.699Z,5.50
2022-10-01T09:40:14.912Z,5.80
2022-10-01T09:42:43.952Z,6.37
2022-10-01T09:45:13.323Z,6.43
2022-10-01T09:47:44.886Z,7.77
2022-10-01T09:50:17.997Z,7.00
2022-10-01T09:52:52.511Z,7.87
2022-10-01T09:55:31.697Z,8.67
2022-10-01T09:58:04.392Z,8.60
2022-10-01T10:00:32.962Z,8.83
2022-10-01T10:03:02.488Z,9.33
2022-10-01T10:05:42.156Z,9.73
2022-10-01T10:08:15.314Z,9.60
2022-10-01T10:10:51.889Z,9.83
2022-10-01T10:13:26.600Z,9.03
2022-10-01T10:15:58.500Z,9.27
2022-10-01T10:18:33.994Z,9.40
2022-10-01T10:21:09.011Z,9.53
2022-10-01T10:23:48.605Z,11.17
2022-10-01T10:26:21.829Z,10.87
2022-10-01T10:28:49.865Z,10.93
2022-10-01T10:31:24.588Z,10.67
2022-10-01T10:34:02.391Z,10.47
2022-10-01T10:36:34.000Z,9.60
2022-10-01T10:39:04.372Z,9.87
2022-10-01T10:41:33.487Z,9.00
2022-10-01T10:44:04.764Z,8.60
2022-10-01T10:46:42.805Z,7.50
2022-10-01T10:49:22.393Z,10.50
2022-10-01T10:51:54.084Z,7.30
2022-10-01T10:54:29.441Z,7.83
2022-10-01T10:57:05.318Z,7.03
2022-10-01T10:59:34.806Z,11.53
2022-10-01T11:02:07.646Z,5.43
2022-10-01T11:04:47.062Z,6.30
2022-10-01T11:07:21.423Z,7.47
2022-10-01T11:10:23.054Z,8.73
2022-10-01T11:13:24.619Z,10.83
2022-10-01T11:16:08.789Z,7.13
2022-10-01T11:19:03.388Z,8.40
2022-10-01T11:22:00.102Z,8.90
2022-10-01T11:24:52.438Z,9.33
2022-10-01T11:27:27.465Z,9.83
2022-10-01T11:30:04.476Z,5.67
2022-10-01T11:32:46.080Z,8.83
2022-10-01T11:35:40.090Z,6.53
2022-10-01T11:38:45.597Z,6.67
2022-10-01T11:41:29.853Z,7.67
2022-10-01T11:44:01.971Z,7.50
2022-10-01T11:46:40.211Z,8.03
2022-10-01T11:49:36.167Z,11.20
2022-10-01T11:52:11.634Z,6.90
2022-10-01T11:54:57.209Z,10.83
2022-10-01T11:57:45.355Z,9.53
2022-10-01T12:00:16.596Z,5.93
2022-10-01T12:02:53.904Z,6.77
2022-10-01T12:05:26.732Z,7.90
2022-10-01T12:08:00.074Z,8.30
2022-10-01T12:10:39.572Z,7.67
2022-10-01T12:13:22.389Z,6.40
2022-10-01T12:15:57.480Z,5.93
2022-10-01T12:18:33.001Z,6.57
2022-10-01T12:21:04.283Z,5.57
2022-10-01T12:23:37.132Z,6.83
2022-10-01T12:26:17.384Z,8.83
2022-10-01T12:29:00.138Z,8.43
2022-10-01T12:31:39.564Z,7.53
2022-10-01T12:34:17.881Z,8.50
2022-10-01T12:36:55.805Z,7.63
2022-10-01T12:39:44.998Z,10.83
2022-10-01T12:42:31.337Z,9.67
2022-10-01T12:45:10.485Z,6.83
2022-10-01T12:47:46.979Z,4.53
2022-10-01T12:50:26.693Z,5.97
2022-10-01T12:53:10.427Z,4.70
2022-10-01T12:56:00.489Z,5.20
2022-10-01T12:59:06.240Z,8.33
2022-10-01T13:01:57.297Z,5.87
2022-10-01T13:04:42.289Z,6.03
2022-10-01T13:07:40.793Z,6.97
2022-10-01T13:10:19.368Z,7.73
2022-10-01T13:13:00.145Z,6.60
2022-10-01T13:15:32.767Z,11.77
2022-10-01T13:18:12.662Z,9.03
2022-10-01T13:20:54.098Z,6.03
2022-10-01T13:23:28.518Z,6.80
2022-10-01T13:26:05.591Z,8.03
2022-10-01T13:28:48.813Z,5.00
2022-10-01T13:31:21.009Z,5.47
2022-10-01T13:33:59.205Z,5.87
2022-10-01T13:36:34.261Z,4.17
2022-10-01T13:39:02.529Z,5.93
2022-10-01T13:41:33.143Z,5.33
2022-10-01T13:44:22.867Z,4.67
2022-10-01T13:47:00.615Z,4.33
2022-10-01T13:49:31.979Z,5.83
2022-10-01T13:52:02.183Z,6.00
2022-10-01T13:54:39.861Z,3.27
2022-10-01T13:57:25.896Z,4.33
2022-10-01T14:00:00.532Z,3.27
2022-10-01T14:02:40.567Z,3.97
2022-10-01T14:05:31.370Z,3.40
2022-10-01T14:08:11.844Z,6.37
2022-10-01T14:11:06.190Z,3.93
2022-10-01T14:14:00.881Z,3.77
2022-10-01T14:16:34.167Z,7.40
2022-10-01T14:19:03.731Z,6.20
2022-10-01T14:21:52.353Z,4.83
2022-10-01T14:24:32.530Z,4.57
2022-10-01T14:27:10.073Z,4.33
2022-10-01T14:29:53.825Z,5.57
2022-10-01T14:32:33.953Z,6.53
2022-10-01T14:35:20.615Z,7.33
2022-10-01T14:37:51.001Z,4.83
2022-10-01T14:40:24.230Z,6.00
2022-10-01T14:42:59.984Z,8.80
2022-10-01T14:45:28.516Z,7.13
2022-10-01T14:48:03.207Z,4.77
2022-10-01T14:50:36.125Z,6.03
2022-10-01T14:53:06.673Z,3.80
2022-10-01T14:55:36.786Z,4.97
2022-10-01T14:58:06.046Z,8.30
2022-10-01T15:00:34.820Z,5.77
2022-10-01T15:03:18.305Z,8.30
2022-10-01T15:05:48.371Z,6.50
2022-10-01T15:08:20.794Z,5.73
2022-10-01T15:10:53.956Z,6.00
2022-10-01T15:13:27.836Z,6.70
2022-10-01T15:15:56.987Z,6.50
2022-10-01T15:18:29.189Z,6.57
2022-10-01T15:20:59.664Z,7.97
2022-10-01T15:23:30.166Z,9.30
2022-10-01T15:26:01.593Z,8.20
2022-10-01T15:28:32.876Z,7.20
2022-10-01T15:31:05.216Z,4.30
2022-10-01T15:33:36.196Z,6.33
2022-10-01T15:36:06.802Z,4.13
2022-10-01T15:38:37.144Z,6.37
2022-10-01T15:41:29.909Z,6.07
2022-10-01T15:43:56.040Z,8.03
2022-10-01T15:46:35.408Z,6.30
2022-10-01T15:49:18.126Z,6.47
2022-10-01T15:52:12.305Z,8.00
2022-10-01T15:54:44.517Z,5.70
2022-10-01T15:57:19.659Z,6.03
2022-10-01T15:59:51.363Z,4.60
2022-10-01T16:02:24.285Z,7.13
2022-10-01T16:04:56.742Z,3.63
2022-10-01T16:07:30.599Z,5.97
2022-10-01T16:10:13.149Z,5.63
2022-10-01T16:12:42.273Z,4.70
2022-10-01T16:15:30.030Z,4.70
2022-10-01T16:17:59.161Z,7.47
2022-10-01T16:20:38.819Z,4.53
2022-10-01T16:23:45.156Z,7.23
2022-10-01T16:26:38.483Z,5.17
2022-10-01T16:29:29.050Z,5.83
2022-10-01T16:31:57.465Z,6.13
2022-10-01T16:34:27.874Z,7.17
2022-10-01T16:36:55.944Z,8.00
2022-10-01T16:39:24.498Z,8.47
2022-10-01T16:42:19.137Z,6.87
2022-10-01T16:44:44.224Z,8.00
2022-10-01T16:47:13.408Z,6.73
2022-10-01T16:49:42.034Z,7.23
2022-10-01T16:52:15.491Z,6.47
2022-10-01T16:54:44.840Z,3.90
2022-10-01T16:57:15.265Z,5.93
2022-10-01T16:59:43.984Z,6.07
2022-10-01T17:02:14.055Z,5.60
2022-10-01T17:04:42.637Z,6.57
2022-10-01T17:07:13.148Z,4.47
2022-10-01T17:09:41.207Z,8.23
2022-10-01T17:12:10.675Z,7.53
2022-10-01T17:14:42.874Z,9.57
2022-10-01T17:17:10.985Z,6.93
2022-10-01T17:19:39.029Z,8.23
2022-10-01T17:22:07.149Z,11.07
2022-10-01T17:24:37.234Z,7.77
2022-10-01T17:27:05.403Z,5.90
2022-10-01T17:29:33.611Z,7.60
2022-10-01T17:32:03.091Z,5.37
2022-10-01T17:34:31.180Z,6.50
2022-10-01T17:37:00.276Z,5.63
2022-10-01T17:39:32.819Z,6.30
2022-10-01T17:42:00.877Z,7.50
2022-10-01T17:44:28.964Z,6.37
2022-10-01T17:46:57.053Z,8.50
2022-10-01T17:49:26.477Z,5.77
2022-10-01T17:51:56.957Z,4.97
2022-10-01T17:54:25.575Z,6.87
2022-10-01T17:56:53.770Z,6.47
2022-10-01T17:59:22.243Z,4.70
2022-10-01T18:01:52.680Z,5.40
2022-10-01T18:04:20.710Z,6.73
2022-10-01T18:06:52.173Z,5.67
2022-10-01T18:09:20.410Z,7.67
2022-10-01T18:11:51.121Z,5.07
2022-10-01T18:14:19.220Z,5.90
2022-10-01T18:16:47.287Z,7.47
2022-10-01T18:22:13.829Z,9.37
2022-10-01T18:24:42.172Z,6.03
2022-10-01T18:27:11.285Z,6.40
2022-10-01T18:29:42.786Z,4.93
2022-10-01T18:32:21.730Z,5.80
2022-10-01T18:34:55.691Z,6.23
2022-10-01T18:37:37.750Z,5.47
2022-10-01T18:40:13.549Z,6.73
2022-10-01T18:42:48.100Z,6.30
2022-10-01T18:45:18.248Z,7.73
2022-10-01T18:48:04.097Z,7.73
2022-10-01T18:50:43.930Z,6.53
2022-10-01T18:53:56.666Z,8.57
2022-10-01T18:56:41.759Z,7.07
2022-10-01T18:59:32.362Z,5.93
2022-10-01T19:02:19.302Z,10.80
2022-10-01T19:05:29.634Z,8.17
2022-10-01T19:08:10.858Z,8.63
2022-10-01T19:10:42.633Z,11.60
2022-10-01T19:13:20.460Z,7.30
2022-10-01T19:15:59.138Z,5.87
2022-10-01T19:18:48.572Z,9.17
2022-10-01T19:21:28.658Z,11.17
2022-10-01T19:28:02.048Z,9.30
2022-10-01T19:30:46.017Z,7.17
2022-10-01T19:33:18.149Z,11.50
2022-10-01T19:35:51.397Z,9.43
2022-10-01T19:38:25.176Z,9.47
2022-10-01T19:41:01.106Z,11.80
2022-10-01T19:43:34.567Z,8.23
2022-10-01T19:46:09.113Z,10.47
2022-10-01T19:48:45.137Z,10.90
2022-10-01T19:51:21.918Z,7.87
2022-10-01T19:53:59.966Z,6.17
2022-10-01T19:56:31.064Z,12.63
2022-10-01T19:59:08.495Z,6.07
2022-10-01T20:01:40.239Z,7.77
2022-10-01T20:04:15.645Z,8.33
2022-10-01T20:06:47.232Z,5.47
2022-10-01T20:09:29.646Z,6.73
2022-10-01T20:12:09.747Z,6.97
2022-10-01T20:15:09.739Z,6.53
2022-10-01T20:17:52.091Z,9.00
2022-10-01T20:20:30.573Z,6.20
2022-10-01T20:23:11.378Z,6.97
2022-10-01T20:25:46.772Z,8.30
2022-10-01T20:28:21.087Z,6.40
2022-10-01T20:30:59.219Z,8.80
2022-10-01T20:33:34.384Z,6.23
2022-10-01T20:36:11.852Z,6.87
2022-10-01T20:38:47.903Z,7.93
2022-10-01T20:41:19.941Z,5.60
2022-10-01T20:43:50.187Z,7.00
2022-10-01T20:46:38.042Z,8.33
2022-10-01T20:49:19.115Z,5.27
2022-10-01T20:51:57.002Z,6.60
2022-10-01T20:54:31.465Z,6.33
2022-10-01T20:57:09.812Z,4.60
2022-10-01T20:59:42.127Z,6.77
2022-10-01T21:02:29.729Z,6.67
2022-10-01T21:05:04.166Z,5.13
2022-10-01T21:07:39.084Z,5.50
2022-10-01T21:10:18.285Z,9.00
2022-10-01T21:12:53.546Z,6.50
2022-10-01T21:15:24.864Z,6.10
2022-10-01T21:18:02.132Z,6.60
2022-10-01T21:20:50.915Z,10.77
2022-10-01T21:23:32.518Z,4.93
2022-10-01T21:26:15.171Z,9.13
2022-10-01T21:29:08.576Z,7.43
2022-10-01T21:31:46.007Z,9.47
2022-10-01T21:34:23.386Z,10.23
2022-10-01T21:37:05.131Z,11.43
2022-10-01T21:39:36.711Z,8.40
2022-10-01T21:42:15.833Z,7.70
2022-10-01T21:45:17.622Z,5.00
2022-10-01T21:48:14.179Z,4.97
2022-10-01T21:50:56.016Z,5.40
2022-10-01T21:54:01.769Z,4.00
2022-10-01T21:56:55.005Z,6.63
2022-10-01T21:59:56.801Z,8.30
2022-10-01T22:02:35.801Z,6.13
2022-10-01T22:05:12.629Z,6.33
2022-10-01T22:07:51.934Z,7.17
2022-10-01T22:10:24.142Z,7.60
2022-10-01T22:12:58.703Z,9.17
2022-10-01T22:15:36.572Z,5.47
2022-10-01T22:18:07.222Z,7.47
2022-10-01T22:20:42.996Z,8.27
2022-10-01T22:23:18.241Z,6.70
2022-10-01T22:25:53.785Z,6.60
2022-10-01T22:28:26.251Z,8.03
2022-10-01T22:30:57.227Z,6.17
2022-10-01T22:33:32.407Z,5.60
2022-10-01T22:36:07.732Z,7.43
2022-10-01T22:38:43.438Z,8.17
2022-10-01T22:41:21.521Z,8.87
2022-10-01T22:43:52.607Z,7.60
2022-10-01T22:46:43.811Z,6.83
2022-10-01T22:49:25.765Z,7.17
2022-10-01T22:52:14.745Z,7.30
2022-10-01T22:55:03.099Z,7.60
2022-10-01T22:57:54.215Z,10.33
2022-10-01T23:00:22.357Z,8.90
2022-10-01T23:03:07.929Z,6.77
2022-10-01T23:05:45.958Z,9.07
2022-10-01T23:08:22.857Z,8.50
2022-10-01T23:11:01.105Z,7.07
2022-10-01T23:13:37.987Z,7.10
2022-10-01T23:16:15.206Z,6.37
2022-10-01T23:18:49.531Z,6.23
2022-10-01T23:21:28.722Z,6.87
2022-10-01T23:24:09.826Z,9.80
2022-10-01T23:26:48.713Z,6.97
2022-10-01T23:29:44.631Z,7.00
2022-10-01T23:32:29.295Z,10.17
2022-10-01T23:35:05.362Z,8.90
2022-10-01T23:38:02.328Z,7.17
2022-10-01T23:40:35.628Z,8.07
2022-10-01T23:43:10.977Z,8.90
2022-10-01T23:45:47.901Z,8.87
2022-10-01T23:48:22.131Z,7.30
2022-10-01T23:50:59.478Z,10.10
2022-10-01T23:53:35.826Z,9.83
2022-10-01T23:56:24.567Z,9.23
2022-10-01T23:59:01.671Z,6.53
